createdAt,value
2019-02-24T00:01:08.664Z,55.10
2019-02-24T00:03:40.501Z,55.20
2019-02-24T00:06:14.490Z,55.30
2019-02-24T00:08:47.951Z,55.40
2019-02-24T00:11:19.764Z,55.30
2019-02-24T00:13:51.492Z,55.20
2019-02-24T00:16:36.850Z,55.20
2019-02-24T00:19:08.540Z,55.40
2019-02-24T00:21:40.478Z,55.40
2019-02-24T00:24:13.579Z,55.50
2019-02-24T00:26:45.537Z,55.60
2019-02-24T00:29:17.911Z,55.60
2019-02-24T00:31:52.083Z,55.70
2019-02-24T00:34:23.891Z,55.80
2019-02-24T00:36:55.648Z,56.00
2019-02-24T00:39:27.408Z,56.10
2019-02-24T00:41:59.102Z,56.20
2019-02-24T00:44:32.949Z,56.40
2019-02-24T00:47:06.641Z,56.60
2019-02-24T00:49:38.596Z,56.80
2019-02-24T00:52:10.629Z,56.90
2019-02-24T00:54:42.300Z,57.10
2019-02-24T00:57:13.913Z,57.20
2019-02-24T00:59:45.932Z,57.30
2019-02-24T01:02:19.378Z,57.40
2019-02-24T01:04:51.042Z,57.30
2019-02-24T01:07:22.734Z,57.30
2019-02-24T01:09:54.498Z,57.40
2019-02-24T01:12:26.583Z,57.30
2019-02-24T01:14:58.358Z,57.30
2019-02-24T01:17:30.058Z,57.40
2019-02-24T01:20:03.506Z,57.30
2019-02-24T01:22:37.539Z,57.30
2019-02-24T01:25:09.698Z,57.20
2019-02-24T01:27:41.644Z,57.30
2019-02-24T01:30:14.240Z,57.40
2019-02-24T01:32:46.418Z,57.10
2019-02-24T01:35:18.321Z,56.90
2019-02-24T01:37:50.162Z,56.70
2019-02-24T01:40:21.913Z,56.60
2019-02-24T01:42:53.668Z,56.60
2019-02-24T01:45:25.422Z,55.90
2019-02-24T01:47:57.408Z,56.20
2019-02-24T01:50:29.569Z,55.80
2019-02-24T01:53:01.384Z,55.70
2019-02-24T01:55:34.681Z,55.70
2019-02-24T01:58:07.586Z,55.70
2019-02-24T02:00:39.222Z,55.70
2019-02-24T02:03:15.666Z,55.70
2019-02-24T02:05:47.532Z,55.60
2019-02-24T02:08:19.160Z,55.70
2019-02-24T02:10:51.000Z,55.80
2019-02-24T02:13:22.720Z,55.90
2019-02-24T02:15:54.410Z,56.00
2019-02-24T02:18:26.234Z,56.10
2019-02-24T02:20:58.220Z,56.20
2019-02-24T02:23:30.016Z,56.30
2019-02-24T02:26:00.906Z,56.40
2019-02-24T02:28:32.460Z,56.40
2019-02-24T02:31:04.557Z,56.60
2019-02-24T02:33:36.224Z,56.30
2019-02-24T02:36:08.144Z,56.80
2019-02-24T02:38:40.301Z,56.80
2019-02-24T02:41:12.111Z,56.90
2019-02-24T02:43:43.748Z,56.90
2019-02-24T02:46:17.205Z,56.80
2019-02-24T02:48:48.758Z,56.70
2019-02-24T02:51:22.549Z,56.60
2019-02-24T02:53:53.824Z,56.60
2019-02-24T02:56:25.681Z,56.60
2019-02-24T02:58:57.342Z,56.50
2019-02-24T03:01:39.608Z,56.60
2019-02-24T03:04:11.373Z,56.50
2019-02-24T03:06:59.460Z,56.60
2019-02-24T03:09:31.100Z,56.50
2019-02-24T03:12:02.848Z,56.60
2019-02-24T03:14:34.779Z,56.60
2019-02-24T03:17:07.677Z,56.70
2019-02-24T03:19:40.354Z,56.70
2019-02-24T03:22:13.124Z,56.80
2019-02-24T03:24:45.557Z,56.90
2019-02-24T03:27:17.204Z,56.90
2019-02-24T03:29:49.796Z,57.20
2019-02-24T03:32:21.517Z,57.40
2019-02-24T03:34:53.191Z,57.50
2019-02-24T03:37:24.934Z,57.50
2019-02-24T03:39:56.544Z,57.60
2019-02-24T03:42:28.136Z,57.40
2019-02-24T03:44:59.833Z,57.40
2019-02-24T03:47:32.892Z,57.50
2019-02-24T03:50:05.751Z,57.50
2019-02-24T03:52:37.540Z,57.50
2019-02-24T03:55:09.220Z,57.50
2019-02-24T03:57:40.854Z,57.40
2019-02-24T04:00:22.594Z,57.50
2019-02-24T04:02:54.554Z,57.60
2019-02-24T04:05:26.317Z,57.60
2019-02-24T04:08:00.202Z,57.70
2019-02-24T04:10:31.958Z,57.80
2019-02-24T04:13:03.736Z,58.00
2019-02-24T04:15:35.550Z,58.00
2019-02-24T04:18:07.403Z,57.80
2019-02-24T04:20:38.826Z,57.80
2019-02-24T04:23:10.346Z,57.80
2019-02-24T04:25:43.479Z,57.80
2019-02-24T04:28:15.179Z,57.90
2019-02-24T04:30:46.987Z,57.90
2019-02-24T04:33:20.759Z,57.90
2019-02-24T04:35:52.888Z,58.00
2019-02-24T04:38:24.708Z,58.00
2019-02-24T04:40:56.461Z,58.10
2019-02-24T04:43:28.114Z,58.00
2019-02-24T04:46:00.775Z,58.00
2019-02-24T04:48:32.475Z,58.10
2019-02-24T04:51:04.146Z,58.10
2019-02-24T04:53:36.255Z,58.20
2019-02-24T04:56:08.013Z,58.30
2019-02-24T04:58:39.620Z,58.30
2019-02-24T05:01:11.327Z,58.30
2019-02-24T05:03:42.915Z,58.40
2019-02-24T05:06:14.538Z,58.50
2019-02-24T05:08:46.134Z,58.50
2019-02-24T05:11:17.880Z,58.50
2019-02-24T05:13:49.451Z,58.90
2019-02-24T05:16:21.188Z,58.50
2019-02-24T05:18:53.028Z,58.70
2019-02-24T05:21:24.621Z,58.50
2019-02-24T05:23:56.277Z,58.60
2019-02-24T05:26:28.597Z,58.60
2019-02-24T05:29:00.644Z,58.70
2019-02-24T05:31:32.473Z,58.70
2019-02-24T05:34:04.146Z,58.80
2019-02-24T05:36:37.527Z,58.90
2019-02-24T05:39:09.437Z,58.90
2019-02-24T05:41:41.298Z,58.80
2019-02-24T05:44:12.987Z,58.60
2019-02-24T05:46:44.852Z,58.70
2019-02-24T05:49:16.575Z,58.80
2019-02-24T05:51:48.333Z,58.70
2019-02-24T05:54:21.230Z,58.60
2019-02-24T05:56:53.266Z,58.50
2019-02-24T05:59:24.963Z,58.40
2019-02-24T06:01:59.612Z,58.30
2019-02-24T06:04:31.611Z,58.40
2019-02-24T06:07:03.415Z,58.20
2019-02-24T06:09:37.080Z,58.20
2019-02-24T06:12:08.856Z,58.30
2019-02-24T06:14:40.658Z,58.20
2019-02-24T06:17:12.298Z,58.30
2019-02-24T06:19:44.214Z,58.90
2019-02-24T06:22:16.146Z,58.20
2019-02-24T06:24:48.138Z,58.10
2019-02-24T06:27:19.807Z,58.20
2019-02-24T06:29:51.502Z,58.20
2019-02-24T06:32:24.228Z,58.20
2019-02-24T06:34:55.942Z,58.40
2019-02-24T06:37:27.928Z,58.40
2019-02-24T06:40:00.262Z,58.40
2019-02-24T06:42:31.992Z,58.40
2019-02-24T06:45:03.727Z,58.50
2019-02-24T06:47:35.353Z,58.40
2019-02-24T06:50:09.640Z,58.40
2019-02-24T06:52:41.408Z,58.50
2019-02-24T06:55:13.993Z,58.50
2019-02-24T06:57:46.084Z,58.50
2019-02-24T07:00:18.866Z,58.50
2019-02-24T07:02:50.860Z,58.60
2019-02-24T07:05:22.615Z,59.20
2019-02-24T07:07:56.104Z,58.90
2019-02-24T07:10:27.872Z,58.90
2019-02-24T07:12:59.611Z,58.90
2019-02-24T07:15:31.638Z,59.00
2019-02-24T07:18:03.578Z,58.90
2019-02-24T07:20:35.261Z,58.90
2019-02-24T07:23:19.390Z,58.80
2019-02-24T07:25:42.804Z,58.70
2019-02-24T07:28:14.402Z,58.50
2019-02-24T07:30:49.005Z,58.30
2019-02-24T07:33:20.706Z,58.00
2019-02-24T07:35:52.584Z,57.80
2019-02-24T07:38:24.643Z,57.80
2019-02-24T07:40:56.800Z,57.80
2019-02-24T07:43:28.827Z,57.90
2019-02-24T07:46:12.364Z,58.70
2019-02-24T07:48:44.284Z,58.00
2019-02-24T07:51:16.112Z,57.40
2019-02-24T07:53:48.134Z,56.80
2019-02-24T07:56:20.248Z,56.40
2019-02-24T07:58:52.116Z,56.10
2019-02-24T08:01:23.978Z,55.50
2019-02-24T08:03:57.076Z,54.00
2019-02-24T08:06:29.149Z,53.10
2019-02-24T08:09:00.696Z,53.40
2019-02-24T08:11:32.239Z,53.80
2019-02-24T08:14:06.537Z,54.00
2019-02-24T08:16:38.347Z,54.30
2019-02-24T08:19:09.994Z,54.50
2019-02-24T08:21:43.049Z,54.30
2019-02-24T08:24:15.333Z,54.20
2019-02-24T08:26:47.087Z,54.30
2019-02-24T08:29:19.063Z,54.80
2019-02-24T08:31:50.908Z,55.20
2019-02-24T08:34:22.720Z,55.40
2019-02-24T08:36:54.530Z,55.80
2019-02-24T08:39:28.949Z,56.20
2019-02-24T08:42:00.778Z,57.20
2019-02-24T08:44:32.879Z,57.00
2019-02-24T08:47:04.774Z,57.00
2019-02-24T08:49:39.004Z,57.40
2019-02-24T08:52:13.062Z,56.60
2019-02-24T08:54:44.898Z,56.30
2019-02-24T08:57:17.820Z,56.00
2019-02-24T08:59:49.306Z,55.90
2019-02-24T09:02:21.414Z,55.80
2019-02-24T09:04:53.180Z,55.60
2019-02-24T09:07:24.959Z,55.50
2019-02-24T09:09:57.219Z,55.50
2019-02-24T09:12:29.050Z,55.60
2019-02-24T09:15:01.200Z,55.50
2019-02-24T09:17:32.934Z,55.40
2019-02-24T09:20:04.644Z,55.10
2019-02-24T09:22:38.294Z,54.70
2019-02-24T09:25:10.065Z,54.40
2019-02-24T09:27:42.022Z,54.10
2019-02-24T09:30:13.787Z,53.50
2019-02-24T09:32:45.864Z,53.30
2019-02-24T09:35:18.130Z,52.30
2019-02-24T09:37:49.980Z,51.80
2019-02-24T09:40:21.576Z,51.00
2019-02-24T09:42:53.831Z,50.00
2019-02-24T09:45:25.913Z,49.50
2019-02-24T09:47:58.583Z,49.40
2019-02-24T09:50:30.689Z,49.20
2019-02-24T09:53:03.380Z,49.00
2019-02-24T09:55:36.105Z,48.70
2019-02-24T09:58:08.000Z,48.20
2019-02-24T10:00:39.827Z,48.30
2019-02-24T10:03:11.870Z,48.50
2019-02-24T10:05:43.560Z,48.70
2019-02-24T10:08:15.531Z,49.10
2019-02-24T10:10:47.562Z,49.10
2019-02-24T10:13:19.168Z,48.90
2019-02-24T10:15:51.047Z,48.70
2019-02-24T10:18:22.704Z,48.80
2019-02-24T10:20:54.788Z,49.00
2019-02-24T10:23:27.141Z,49.40
2019-02-24T10:25:58.970Z,49.70
2019-02-24T10:28:30.842Z,49.90
2019-02-24T10:31:02.565Z,49.50
2019-02-24T10:33:34.943Z,49.00
2019-02-24T10:36:06.881Z,48.70
2019-02-24T10:38:41.715Z,48.10
2019-02-24T10:41:13.478Z,47.00
2019-02-24T10:43:45.150Z,45.90
2019-02-24T10:46:17.109Z,45.10
2019-02-24T10:48:49.083Z,45.30
2019-02-24T10:51:21.161Z,45.90
2019-02-24T10:53:53.011Z,44.80
2019-02-24T10:56:24.626Z,45.00
2019-02-24T10:58:56.840Z,45.50
2019-02-24T11:01:30.370Z,46.20
2019-02-24T11:04:19.066Z,47.20
2019-02-24T11:06:50.784Z,48.10
2019-02-24T11:09:23.590Z,49.00
2019-02-24T11:11:55.514Z,49.40
2019-02-24T11:14:27.218Z,49.50
2019-02-24T11:16:59.230Z,49.50
2019-02-24T11:19:32.020Z,49.30
2019-02-24T11:22:03.762Z,49.30
2019-02-24T11:24:37.126Z,49.40
2019-02-24T11:27:15.804Z,49.70
2019-02-24T11:29:48.196Z,49.60
2019-02-24T11:32:21.860Z,50.00
2019-02-24T11:34:53.822Z,49.90
2019-02-24T11:37:25.527Z,49.60
2019-02-24T11:39:57.111Z,49.50
2019-02-24T11:42:29.194Z,49.50
2019-02-24T11:45:00.817Z,49.50
2019-02-24T11:47:32.570Z,49.60
2019-02-24T11:50:04.525Z,49.80
2019-02-24T11:52:36.854Z,49.90
2019-02-24T11:55:08.886Z,49.90
2019-02-24T11:57:40.768Z,49.90
2019-02-24T12:00:13.503Z,49.90
2019-02-24T12:02:45.816Z,49.70
2019-02-24T12:05:17.831Z,49.60
2019-02-24T12:07:51.416Z,49.50
2019-02-24T12:10:26.115Z,49.60
2019-02-24T12:12:57.880Z,49.90
2019-02-24T12:15:29.879Z,50.00
2019-02-24T12:18:01.868Z,50.10
2019-02-24T12:20:33.782Z,50.30
2019-02-24T12:23:06.926Z,50.50
2019-02-24T12:25:40.615Z,50.70
2019-02-24T12:28:12.614Z,50.90
2019-02-24T12:30:46.673Z,51.10
2019-02-24T12:33:18.455Z,51.20
2019-02-24T12:35:50.264Z,51.20
2019-02-24T12:38:24.406Z,51.00
2019-02-24T12:40:56.468Z,50.90
2019-02-24T12:43:27.996Z,50.90
2019-02-24T12:46:02.216Z,50.90
2019-02-24T12:48:33.886Z,50.90
2019-02-24T12:51:06.109Z,50.90
2019-02-24T12:53:38.130Z,51.00
2019-02-24T12:56:11.282Z,51.00
2019-02-24T12:58:43.123Z,51.00
2019-02-24T13:01:14.898Z,50.90
2019-02-24T13:03:46.706Z,51.00
2019-02-24T13:06:19.628Z,51.00
2019-02-24T13:08:51.495Z,50.90
2019-02-24T13:11:24.692Z,50.90
2019-02-24T13:13:56.694Z,51.00
2019-02-24T13:16:28.864Z,51.00
2019-02-24T13:19:01.491Z,50.80
2019-02-24T13:21:33.457Z,50.50
2019-02-24T13:24:05.467Z,50.30
2019-02-24T13:26:37.777Z,50.20
2019-02-24T13:29:09.684Z,50.20
2019-02-24T13:31:41.482Z,50.10
2019-02-24T13:34:13.457Z,50.20
2019-02-24T13:36:45.255Z,50.60
2019-02-24T13:39:17.222Z,50.90
2019-02-24T13:41:51.917Z,51.10
2019-02-24T13:44:23.884Z,51.20
2019-02-24T13:46:55.471Z,51.40
2019-02-24T13:49:27.670Z,51.60
2019-02-24T13:51:59.847Z,51.70
2019-02-24T13:54:32.818Z,51.70
2019-02-24T13:57:04.816Z,51.90
2019-02-24T13:59:38.324Z,52.00
2019-02-24T14:02:23.761Z,51.90
2019-02-24T14:04:50.163Z,51.90
2019-02-24T14:07:21.777Z,51.80
2019-02-24T14:09:53.804Z,51.50
2019-02-24T14:12:25.666Z,51.40
2019-02-24T14:14:57.714Z,51.30
2019-02-24T14:17:29.780Z,51.40
2019-02-24T14:20:01.665Z,51.60
2019-02-24T14:22:33.582Z,51.70
2019-02-24T14:25:05.824Z,51.90
2019-02-24T14:27:39.316Z,52.00
2019-02-24T14:30:12.736Z,52.20
2019-02-24T14:32:44.723Z,52.20
2019-02-24T14:35:16.996Z,52.30
2019-02-24T14:37:50.527Z,52.20
2019-02-24T14:40:25.697Z,52.30
2019-02-24T14:42:57.438Z,52.30
2019-02-24T14:45:29.709Z,52.20
2019-02-24T14:48:04.110Z,52.30
2019-02-24T14:50:36.110Z,52.30
2019-02-24T14:53:10.397Z,52.20
2019-02-24T14:55:43.475Z,52.00
2019-02-24T14:58:15.323Z,52.00
2019-02-24T15:00:47.050Z,52.10
2019-02-24T15:03:19.068Z,52.10
2019-02-24T15:05:50.837Z,52.10
2019-02-24T15:08:22.880Z,52.10
2019-02-24T15:10:54.609Z,52.10
2019-02-24T15:13:26.591Z,52.00
2019-02-24T15:16:01.632Z,51.80
2019-02-24T15:18:33.302Z,51.60
2019-02-24T15:21:05.330Z,51.40
2019-02-24T15:23:37.142Z,51.20
2019-02-24T15:26:09.064Z,51.20
2019-02-24T15:28:40.970Z,51.20
2019-02-24T15:31:12.736Z,51.10
2019-02-24T15:33:44.978Z,51.00
2019-02-24T15:36:18.372Z,50.80
2019-02-24T15:38:50.116Z,50.60
2019-02-24T15:41:29.494Z,50.70
2019-02-24T15:43:55.473Z,50.60
2019-02-24T15:46:27.359Z,50.90
2019-02-24T15:48:59.366Z,51.30
2019-02-24T15:51:33.680Z,51.80
2019-02-24T15:54:05.540Z,52.30
2019-02-24T15:56:38.055Z,53.00
2019-02-24T15:59:09.858Z,53.90
2019-02-24T16:01:41.582Z,54.70
2019-02-24T16:04:13.596Z,55.30
2019-02-24T16:06:45.878Z,56.00
2019-02-24T16:09:19.662Z,56.10
2019-02-24T16:11:51.032Z,56.30
2019-02-24T16:14:23.912Z,56.80
2019-02-24T16:16:55.641Z,57.20
2019-02-24T16:19:30.792Z,57.40
2019-02-24T16:22:04.938Z,57.50
2019-02-24T16:24:36.723Z,57.70
2019-02-24T16:27:08.581Z,58.10
2019-02-24T16:29:42.490Z,58.50
2019-02-24T16:32:16.990Z,58.80
2019-02-24T16:34:47.062Z,59.20
2019-02-24T16:37:20.366Z,59.20
2019-02-24T16:39:52.088Z,59.50
2019-02-24T16:42:24.970Z,60.00
2019-02-24T16:44:57.180Z,60.50
2019-02-24T16:47:29.038Z,60.70
2019-02-24T16:50:02.432Z,60.70
2019-02-24T16:52:34.325Z,61.00
2019-02-24T16:55:05.964Z,61.00
2019-02-24T16:57:38.124Z,61.30
2019-02-24T17:00:12.834Z,61.30
2019-02-24T17:02:45.478Z,61.40
2019-02-24T17:05:19.324Z,61.50
2019-02-24T17:07:53.666Z,61.80
2019-02-24T17:10:25.402Z,61.80
2019-02-24T17:12:57.984Z,62.00
2019-02-24T17:15:29.968Z,62.30
2019-02-24T17:18:02.254Z,62.40
2019-02-24T17:20:34.234Z,62.90
2019-02-24T17:23:06.004Z,62.80
2019-02-24T17:25:40.318Z,62.80
2019-02-24T17:28:12.316Z,63.00
2019-02-24T17:30:45.113Z,63.20
2019-02-24T17:33:16.986Z,63.60
2019-02-24T17:35:48.858Z,63.60
2019-02-24T17:38:21.249Z,64.00
2019-02-24T17:40:52.896Z,64.20
2019-02-24T17:43:24.882Z,64.30
2019-02-24T17:45:58.622Z,64.50
2019-02-24T17:48:30.626Z,65.00
2019-02-24T17:51:02.410Z,65.70
2019-02-24T17:53:34.678Z,65.70
2019-02-24T17:56:06.493Z,65.70
2019-02-24T17:58:39.358Z,66.50
2019-02-24T18:01:11.130Z,65.80
2019-02-24T18:03:43.554Z,65.80
2019-02-24T18:06:16.195Z,65.80
2019-02-24T18:08:48.216Z,65.60
2019-02-24T18:11:20.479Z,65.70
2019-02-24T18:13:55.770Z,65.70
2019-02-24T18:16:30.053Z,65.70
2019-02-24T18:19:01.822Z,65.90
2019-02-24T18:21:35.886Z,66.20
2019-02-24T18:24:10.104Z,66.30
2019-02-24T18:26:41.912Z,66.20
2019-02-24T18:29:13.604Z,66.00
2019-02-24T18:31:45.478Z,65.90
2019-02-24T18:34:17.543Z,66.00
2019-02-24T18:36:50.534Z,66.20
2019-02-24T18:39:22.316Z,66.20
2019-02-24T18:41:54.471Z,66.50
2019-02-24T18:44:26.680Z,66.60
2019-02-24T18:46:58.430Z,66.90
2019-02-24T18:49:30.682Z,66.90
2019-02-24T18:52:03.145Z,67.00
2019-02-24T18:54:37.400Z,67.10
2019-02-24T18:57:09.100Z,67.00
2019-02-24T18:59:45.830Z,66.80
2019-02-24T19:02:19.974Z,67.00
2019-02-24T19:04:56.726Z,67.00
2019-02-24T19:07:28.977Z,66.90
2019-02-24T19:10:00.956Z,67.10
2019-02-24T19:12:33.727Z,67.10
2019-02-24T19:15:05.776Z,67.40
2019-02-24T19:17:39.454Z,67.60
2019-02-24T19:20:11.450Z,67.70
2019-02-24T19:22:45.363Z,68.20
2019-02-24T19:25:18.027Z,68.20
2019-02-24T19:27:49.936Z,68.60
2019-02-24T19:30:22.311Z,68.60
2019-02-24T19:32:54.064Z,68.70
2019-02-24T19:35:25.834Z,68.90
2019-02-24T19:38:00.532Z,69.20
2019-02-24T19:40:42.310Z,69.30
2019-02-24T19:43:14.478Z,69.60
2019-02-24T19:45:51.479Z,69.90
2019-02-24T19:48:23.310Z,70.10
2019-02-24T19:50:56.546Z,70.40
2019-02-24T19:53:30.487Z,70.50
2019-02-24T19:56:06.100Z,70.50
2019-02-24T19:58:37.886Z,70.40
2019-02-24T20:01:09.540Z,70.50
2019-02-24T20:03:41.609Z,70.80
2019-02-24T20:06:13.536Z,70.80
2019-02-24T20:08:45.586Z,70.70
2019-02-24T20:11:20.422Z,70.50
2019-02-24T20:13:52.298Z,70.50
2019-02-24T20:16:25.404Z,70.30
2019-02-24T20:18:57.202Z,70.20
2019-02-24T20:21:30.859Z,70.10
2019-02-24T20:24:02.901Z,69.70
2019-02-24T20:26:42.219Z,69.10
2019-02-24T20:29:15.695Z,68.80
2019-02-24T20:31:52.843Z,68.60
2019-02-24T20:34:25.759Z,68.40
2019-02-24T20:36:57.068Z,68.30
2019-02-24T20:39:31.770Z,68.20
2019-02-24T20:42:03.528Z,68.00
2019-02-24T20:44:39.850Z,67.90
2019-02-24T20:47:12.724Z,68.00
2019-02-24T20:49:45.658Z,68.00
2019-02-24T20:52:19.020Z,68.00
2019-02-24T20:54:53.332Z,67.90
2019-02-24T20:57:25.138Z,68.70
2019-02-24T20:59:58.460Z,67.90
2019-02-24T21:02:30.599Z,67.70
2019-02-24T21:05:02.321Z,67.60
2019-02-24T21:07:34.260Z,67.40
2019-02-24T21:10:06.018Z,67.50
2019-02-24T21:12:39.828Z,67.40
2019-02-24T21:15:14.677Z,67.20
2019-02-24T21:17:48.569Z,67.30
2019-02-24T21:20:22.088Z,67.20
2019-02-24T21:22:53.913Z,68.00
2019-02-24T21:25:27.024Z,67.40
2019-02-24T21:27:58.844Z,67.30
2019-02-24T21:30:31.820Z,67.20
2019-02-24T21:33:03.933Z,67.20
2019-02-24T21:35:37.451Z,68.00
2019-02-24T21:38:09.133Z,67.30
2019-02-24T21:40:42.828Z,67.50
2019-02-24T21:43:14.662Z,67.50
2019-02-24T21:45:46.368Z,67.60
2019-02-24T21:48:18.080Z,67.70
2019-02-24T21:50:50.271Z,67.60
2019-02-24T21:53:24.325Z,68.00
2019-02-24T21:56:00.160Z,68.00
2019-02-24T21:58:32.098Z,68.00
2019-02-24T22:01:04.309Z,68.00
2019-02-24T22:03:35.782Z,68.30
2019-02-24T22:06:09.564Z,68.40
2019-02-24T22:08:41.574Z,68.40
2019-02-24T22:11:14.461Z,68.40
2019-02-24T22:13:46.286Z,68.30
2019-02-24T22:16:18.219Z,68.30
2019-02-24T22:18:50.072Z,68.30
2019-02-24T22:21:22.038Z,68.10
2019-02-24T22:23:53.952Z,68.20
2019-02-24T22:26:25.842Z,68.10
2019-02-24T22:28:57.859Z,68.20
2019-02-24T22:31:29.570Z,68.10
2019-02-24T22:34:02.780Z,68.10
2019-02-24T22:36:34.426Z,68.30
2019-02-24T22:39:07.154Z,69.20
2019-02-24T22:41:40.518Z,68.50
2019-02-24T22:44:12.444Z,68.40
2019-02-24T22:46:44.402Z,68.50
2019-02-24T22:49:16.232Z,68.60
2019-02-24T22:51:49.104Z,68.80
2019-02-24T22:54:22.420Z,69.00
2019-02-24T22:56:57.545Z,69.00
2019-02-24T22:59:29.266Z,69.10
2019-02-24T23:02:04.450Z,69.30
2019-02-24T23:04:37.131Z,69.30
2019-02-24T23:07:08.849Z,69.50
2019-02-24T23:09:44.202Z,69.50
2019-02-24T23:12:15.878Z,69.30
2019-02-24T23:14:47.626Z,69.50
2019-02-24T23:17:20.834Z,69.20
2019-02-24T23:19:53.415Z,69.20
2019-02-24T23:22:26.456Z,69.10
2019-02-24T23:24:58.399Z,69.20
2019-02-24T23:27:32.298Z,69.30
2019-02-24T23:30:04.866Z,69.30
2019-02-24T23:32:37.924Z,70.20
2019-02-24T23:35:15.198Z,69.30
2019-02-24T23:37:46.984Z,69.20
2019-02-24T23:40:18.658Z,69.20
2019-02-24T23:42:50.326Z,69.20
2019-02-24T23:45:22.081Z,69.00
2019-02-24T23:47:54.150Z,68.50
2019-02-24T23:50:28.283Z,68.00
2019-02-24T23:52:59.451Z,67.60
2019-02-24T23:55:31.102Z,67.20
2019-02-24T23:58:03.214Z,66.90
